• Join FlightAware (Why Join?)
  • Login
  • US Flag 
08:07PM EDT


 

Airport Tracker/Info


-or-


 

Live Flight TrackerFlight Track Log ✈ AAL1459 ✈ 10-May-2013 ✈ KBOS - KORD

Flight Track Log - Related Links

Times and Time Zones

All times are in EDT time to prevent confusion due to time zone crossing. See the AAL1459 flight status page for this flight to view local times or setup timezone preferences in your user account.

Time Position Orientation Groundspeed Altitude Reporting Facility
EDT Latitude Longitude Course Direction KTS MPH feet Rate Location/Type
04:07PM 42.3667 -70.9667 300° West 161 185 1,200  Level KA90
04:08PM 42.3667 -70.9333 90° East 196 226 2,100 2,040 Climbing KA90
04:09PM 42.3833 -70.8333 77° East 249 287 4,600 2,820 Climbing KA90
04:10PM 42.4333 -70.7667 45° Northeast 279 321 7,800 1,980 Climbing KA90
04:11PM 42.5965 -70.8687 308° West  Level FlightAware Approximate
04:11PM 42.5347 -70.8256 337° Northwest 288 331 9,300  Level Boston Center
04:12PM 42.6505 -70.9745 300° West  Level FlightAware Approximate
04:12PM 42.5797 -70.9175 304° West 278 320 12,000  Level Boston Center
04:13PM 42.6973 -71.0868 300° West  Level FlightAware Approximate
04:13PM 42.6311 -71.0094 307° West 330 380 14,200  Level Boston Center
04:14PM 42.6972 -71.1264 308° West 354 407 17,100 2,460 Climbing Boston Center
04:15PM 42.7631 -71.2411 308° West 361 415 19,200 2,220 Climbing Boston Center
04:16PM 42.7975 -71.3733 290° West 372 428 21,600 2,160 Climbing Boston Center
04:17PM 42.8094 -71.5203 276° West 372 428 23,600 1,920 Climbing Boston Center
04:18PM 42.8208 -71.6561 277° West 394 453 25,500 1,740 Climbing Boston Center
04:19PM 42.8342 -71.8058 277° West 406 467 27,100 1,380 Climbing Boston Center
04:20PM 42.8475 -71.9614 277° West 406 467 28,300 1,200 Climbing Boston Center
04:21PM 42.8625 -72.1172 278° West 411 473 29,500 1,500 Climbing Boston Center
04:22PM 42.8839 -72.2758 280° West 417 480 31,300 1,860 Climbing Boston Center
04:23PM 42.8964 -72.4286 276° West 424 488 33,300 1,260 Climbing Boston Center
04:24PM 42.9067 -72.5789 275° West 412 474 33,900 300 Climbing Boston Center
04:25PM 42.9147 -72.7350 274° West 397 457 34,000  Climbing Boston Center
04:26PM 42.9269 -72.8825 277° West 390 449 34,000  Level Boston Center
04:27PM 42.9447 -73.0414 279° West 390 449 34,000  Level Boston Center
04:28PM 42.9564 -73.1861 276° West 390 449 34,000  Level Boston Center
04:29PM 42.9681 -73.3311 276° West 390 449 34,000  Level Boston Center
04:30PM 42.9769 -73.4844 275° West 385 443 34,000 -60 Level Boston Center
04:31PM 42.9861 -73.6264 275° West 385 443 33,900 -60 Descending Boston Center
04:32PM 42.9969 -73.7686 276° West 385 443 33,900  Level Boston Center
04:33PM 43.0100 -73.9108 277° West 385 443 34,000  Climbing Boston Center
04:34PM 43.0206 -74.0531 276° West 385 443 34,000  Level Boston Center
04:35PM 43.0308 -74.2011 275° West 385 443 34,000 -60 Level Boston Center
04:36PM 43.0431 -74.3436 277° West 390 449 33,900  Descending Boston Center
04:37PM 43.0511 -74.4886 274° West 390 449 34,000  Climbing Boston Center
04:38PM 43.0628 -74.6369 276° West 390 449 34,000  Level Boston Center
04:39PM 43.0725 -74.7822 275° West 390 449 34,000  Level Boston Center
04:40PM 43.0819 -74.9275 275° West 390 449 34,000  Level Boston Center
04:41PM 43.0911 -75.0786 275° West 390 449 34,000  Level Boston Center
04:42PM 43.1000 -75.2269 275° West 390 449 34,000  Level Boston Center
04:43PM 43.1108 -75.3781 276° West 395 455 34,000  Level Boston Center
04:44PM 43.1214 -75.5267 276° West 395 455 34,000 -60 Level Boston Center
04:45PM 43.1300 -75.6722 275° West 395 455 33,900  Descending Boston Center
04:46PM 43.1381 -75.8178 274° West 390 449 34,000  Climbing Boston Center
04:47PM 43.1464 -75.9633 275° West 385 443 33,900  Descending Boston Center
04:49PM 43.1500 -76.2000 271° West 370 426 34,000  Climbing Toronto Center
04:50PM 43.1594 -76.2708 280° West 377 434 33,900  Descending Cleveland Center
04:51PM 43.1603 -76.4103 271° West 371 427 34,000  Climbing Cleveland Center
04:52PM 43.1611 -76.5497 271° West 371 427 34,000  Level Cleveland Center
04:53PM 43.1594 -76.6867 269° West 365 420 34,000  Level Cleveland Center
04:54PM 43.1581 -76.8347 269° West 365 420 34,000  Level Cleveland Center
04:55PM 43.1583 -76.9714 270° West 365 420 34,000  Level Cleveland Center
04:56PM 43.1564 -77.1111 269° West 365 420 34,000  Level Cleveland Center
04:57PM 43.1561 -77.2475 270° West 365 420 34,000  Level Cleveland Center
04:58PM 43.1558 -77.3872 270° West 365 420 34,000  Level Cleveland Center
04:59PM 43.1536 -77.5267 269° West 365 420 34,000  Level Cleveland Center
05:00PM 43.1528 -77.6633 270° West 365 420 34,000  Level Cleveland Center
05:01PM 43.1522 -77.8028 270° West 365 420 34,000  Level Cleveland Center
05:02PM 43.1489 -77.9283 268° West 365 420 34,000  Level Cleveland Center
05:03PM 43.1478 -78.0650 269° West 365 420 34,000  Level Cleveland Center
05:04PM 43.1444 -78.2044 268° West 365 420 34,000  Level Cleveland Center
05:05PM 43.1431 -78.3439 269° West 365 420 34,000  Level Cleveland Center
05:06PM 43.1392 -78.4806 268° West 365 420 34,000  Level Cleveland Center
05:07PM 43.1542 -78.6225 278° West 365 420 34,000  Level Cleveland Center
05:08PM 43.2003 -78.7578 295° West 370 426 34,000  Level Cleveland Center
05:09PM 43.2000 -78.9667 270° West 370 426 34,000  Level Toronto Center
05:10PM 43.1833 -79.1000 260° West 360 414 34,000  Level Toronto Center
05:11PM 43.1667 -79.2500 261° West 370 426 34,000  Level Toronto Center
05:12PM 43.1667 -79.3833 270° West 370 426 34,000  Level Toronto Center
05:13PM 43.1500 -79.5167 260° West 370 426 34,000  Level Toronto Center
05:14PM 43.1500 -79.6500 270° West 370 426 34,000  Level Toronto Center
05:15PM 43.1333 -79.8000 261° West 370 426 34,000  Level Toronto Center
05:16PM 43.1167 -79.9500 261° West 370 426 34,000  Level Toronto Center
05:17PM 43.1167 -80.0833 270° West 370 426 34,000  Level Toronto Center
05:18PM 43.1000 -80.2000 259° West 360 414 34,000  Level Toronto Center
05:19PM 43.1000 -80.3333 270° West 350 403 34,000  Level Toronto Center
05:20PM 43.0833 -80.4833 261° West 350 403 34,000  Level Toronto Center
05:21PM 43.0667 -80.6167 260° West 350 403 34,000  Level Toronto Center
05:22PM 43.0667 -80.7500 270° West 350 403 34,000  Level Toronto Center
05:23PM 43.0333 -80.8833 251° West 350 403 34,000  Level Toronto Center
05:24PM 43.0333 -81.0167 270° West 350 403 34,000  Level Toronto Center
05:25PM 43.0167 -81.1333 259° West 350 403 34,000  Level Toronto Center
05:26PM 43.0167 -81.3000 270° West 360 414 34,000  Level Toronto Center
05:27PM 43.0167 -81.4167 270° West 360 414 34,000  Level Toronto Center
05:28PM 43.0167 -81.5500 270° West 360 414 34,000  Level Toronto Center
05:29PM 43.0167 -81.7000 270° West 360 414 34,000  Level Toronto Center
05:30PM 43.0167 -81.8500 270° West 360 414 34,000  Level Toronto Center
05:31PM 43.0000 -81.9833 260° West 360 414 34,000  Level Toronto Center
05:32PM 43.0000 -82.1167 270° West 360 414 34,000  Level Toronto Center
05:33PM 43.0000 -82.2500 270° West 370 426 34,000  Level Toronto Center
05:34PM 43.0000 -82.3833 270° West 370 426 34,000  Level Toronto Center
05:35PM 43.0000 -82.5333 270° West 370 426 34,000 -480 Level Toronto Center
05:36PM 42.9833 -82.6833 261° West 370 426 33,100 -900 Descending Toronto Center
05:37PM 42.9833 -82.8167 270° West 370 426 32,200 -600 Descending Toronto Center
05:38PM 42.9833 -82.9667 270° West 380 437 32,000 -120 Descending Toronto Center
05:39PM 42.9833 -83.1000 270° West 380 437 32,000  Level Toronto Center
05:40PM 42.9667 -83.2500 261° West 380 437 32,000  Level Toronto Center
05:41PM 42.9667 -83.4000 270° West 380 437 32,000  Level Toronto Center
05:42PM 42.9667 -83.5333 270° West 380 437 32,000  Level Toronto Center
05:43PM 42.9667 -83.6667 270° West 380 437 32,000  Level Toronto Center
05:44PM 42.9333 -83.8000 251° West 370 426 32,000  Level Toronto Center
05:45PM 42.9333 -83.9667 270° West 370 426 32,000 -480 Level Toronto Center
05:46PM 42.9333 -84.1000 270° West 370 426 31,100 -900 Descending Toronto Center
05:47PM 42.9250 -84.1831 262° West 374 430 30,500 -960 Descending Chicago Center
05:47PM 42.9144 -84.2575 259° West 385 443 30,000 -1,200 Descending Cleveland Center
05:48PM 42.9008 -84.4211 264° West 390 449 28,800 -1,380 Descending Cleveland Center
05:49PM 42.8919 -84.5075 262° West 396 456 27,900 -1,260 Descending Chicago Center
05:50PM 42.8769 -84.6553 262° West 394 453 26,800 -960 Descending Chicago Center
05:51PM 42.8611 -84.8036 262° West 394 453 26,000 -420 Descending Chicago Center
05:52PM 42.8456 -84.9503 262° West 393 452 26,000  Level Chicago Center
05:53PM 42.8292 -85.0969 261° West 393 452 26,000  Level Chicago Center
05:54PM 42.8142 -85.2442 262° West 392 451 26,000  Level Chicago Center
05:55PM 42.7944 -85.4264 262° West 401 461 26,000  Level Chicago Center
05:56PM 42.7725 -85.5792 259° West 408 470 26,000 -60 Level Chicago Center
05:57PM 42.7439 -85.7297 256° West 409 471 25,900 -600 Descending Chicago Center
05:58PM 42.7172 -85.8806 257° West 408 470 24,800 -1,020 Descending Chicago Center
05:59PM 42.6903 -86.0286 256° West 403 464 23,800 -1,440 Descending Chicago Center
06:00PM 42.6642 -86.1725 256° West 393 452 21,800 -2,160 Descending Chicago Center
06:02PM 42.6325 -86.3350 255° West 371 427 19,400 -1,440 Descending Chicago Center
06:03PM 42.6092 -86.4683 257° West 364 419 18,900 -720 Descending Chicago Center
06:04PM 42.5828 -86.6039 255° West 372 428 18,000 -1,140 Descending Chicago Center
06:05PM 42.5564 -86.7464 256° West 369 425 16,600 -1,560 Descending Chicago Center
06:06PM 42.5225 -86.8697 250° West 373 429 14,800 -1,620 Descending Chicago Center
06:07PM 42.4889 -86.9953 250° West 362 417 13,300 -1,440 Descending Chicago Center
06:08PM 42.4536 -87.1158 248° West 351 404 11,900 -1,500 Descending Chicago Center
06:09PM 42.4136 -87.2619 250° West 347 399 10,200 -960 Descending Chicago Center
06:10PM 42.3797 -87.3808 249° West 342 394 10,000 -120 Descending Chicago Center
06:11PM 42.3467 -87.5022 250° West 338 389 10,000  Level Chicago Center
06:12PM 42.2831 -87.5933 227° Southwest 350 403 10,000  Level Chicago Center
06:13PM 42.2069 -87.6731 218° Southwest 346 398 10,000 -120 Level Chicago Center
06:14PM 42.1217 -87.7633 218° Southwest 323 372 9,800 -780 Descending Chicago Center
06:15PM 42.0833 -87.8333 234° Southwest 275 316 8,500 -1,380 Descending Chicago TRACON
06:16PM 42.1000 -87.9500 281° West 271 312 7,000 -900 Descending Chicago TRACON
06:17PM 42.1000 -88.0333 270° West 265 305 6,800 -900 Descending Chicago TRACON
06:18PM 42.1000 -88.1500 270° West 262 302 5,200 -1,380 Descending Chicago TRACON
06:19PM 42.0833 -88.2500 257° West 261 300 4,000 -600 Descending Chicago TRACON
06:20PM 42.0833 -88.3500 270° West 247 284 4,000  Level Chicago TRACON
06:21PM 42.0667 -88.4167 251° West 242 278 4,000  Level Chicago TRACON
06:22PM 42.0167 -88.4167 180° South 240 276 4,000  Level Chicago TRACON
06:22PM 41.9994 -88.4008 146° Southeast 240 276 4,000  Level Chicago Center
06:23PM 41.9828 -88.3347 109° East 205 236 4,000  Level Chicago Center
06:24PM 41.9817 -88.2542 91° East 186 214 4,000  Level Chicago Center